sensor_id;sensor_type;location;lat;lon;timestamp;P1;durP1;ratioP1;P2;durP2;ratioP2
51738;SDS011;37815;52.692;6.226;2024-03-22T00:04:44;11.25;;;6.13;;
51738;SDS011;37815;52.692;6.226;2024-03-22T00:09:44;11.15;;;6.28;;
51738;SDS011;37815;52.692;6.226;2024-03-22T00:14:45;13.65;;;7.18;;
51738;SDS011;37815;52.692;6.226;2024-03-22T00:19:45;13.05;;;6.72;;
51738;SDS011;37815;52.692;6.226;2024-03-22T00:24:46;12.90;;;6.22;;
51738;SDS011;37815;52.692;6.226;2024-03-22T00:29:47;14.90;;;7.57;;
51738;SDS011;37815;52.692;6.226;2024-03-22T00:34:47;12.27;;;6.57;;
51738;SDS011;37815;52.692;6.226;2024-03-22T00:39:48;13.52;;;7.15;;
51738;SDS011;37815;52.692;6.226;2024-03-22T00:44:49;13.77;;;6.72;;
51738;SDS011;37815;52.692;6.226;2024-03-22T00:49:49;14.02;;;6.95;;
51738;SDS011;37815;52.692;6.226;2024-03-22T00:54:50;14.70;;;7.35;;
51738;SDS011;37815;52.692;6.226;2024-03-22T00:59:51;15.23;;;7.25;;
51738;SDS011;37815;52.692;6.226;2024-03-22T01:04:51;15.40;;;7.55;;
51738;SDS011;37815;52.692;6.226;2024-03-22T01:09:52;15.15;;;7.95;;
51738;SDS011;37815;52.692;6.226;2024-03-22T01:14:53;13.73;;;7.28;;
51738;SDS011;37815;52.692;6.226;2024-03-22T01:19:54;14.40;;;7.50;;
51738;SDS011;37815;52.692;6.226;2024-03-22T01:24:54;16.65;;;8.13;;
51738;SDS011;37815;52.692;6.226;2024-03-22T01:29:55;12.45;;;7.10;;
51738;SDS011;37815;52.692;6.226;2024-03-22T01:34:56;13.27;;;6.93;;
51738;SDS011;37815;52.692;6.226;2024-03-22T01:39:57;20.17;;;7.75;;
51738;SDS011;37815;52.692;6.226;2024-03-22T01:44:58;16.45;;;8.13;;
51738;SDS011;37815;52.692;6.226;2024-03-22T01:49:58;15.70;;;7.95;;
51738;SDS011;37815;52.692;6.226;2024-03-22T01:55:00;15.48;;;7.75;;
51738;SDS011;37815;52.692;6.226;2024-03-22T02:00:01;14.70;;;7.45;;
51738;SDS011;37815;52.692;6.226;2024-03-22T02:05:15;17.25;;;8.35;;
51738;SDS011;37815;52.692;6.226;2024-03-22T02:10:19;15.65;;;8.10;;
51738;SDS011;37815;52.692;6.226;2024-03-22T02:15:19;16.80;;;8.20;;
51738;SDS011;37815;52.692;6.226;2024-03-22T02:20:20;13.88;;;7.63;;
51738;SDS011;37815;52.692;6.226;2024-03-22T02:25:21;16.60;;;8.63;;
51738;SDS011;37815;52.692;6.226;2024-03-22T02:30:21;18.95;;;8.65;;
51738;SDS011;37815;52.692;6.226;2024-03-22T02:35:22;16.10;;;8.23;;
51738;SDS011;37815;52.692;6.226;2024-03-22T02:40:22;17.42;;;8.43;;
51738;SDS011;37815;52.692;6.226;2024-03-22T02:45:23;18.13;;;9.10;;
51738;SDS011;37815;52.692;6.226;2024-03-22T02:50:23;17.08;;;8.88;;
51738;SDS011;37815;52.692;6.226;2024-03-22T02:55:24;16.35;;;8.50;;
51738;SDS011;37815;52.692;6.226;2024-03-22T03:00:25;18.48;;;9.27;;
51738;SDS011;37815;52.692;6.226;2024-03-22T03:05:25;19.77;;;9.27;;
51738;SDS011;37815;52.692;6.226;2024-03-22T03:10:26;18.42;;;9.02;;
51738;SDS011;37815;52.692;6.226;2024-03-22T03:15:27;19.27;;;9.00;;
51738;SDS011;37815;52.692;6.226;2024-03-22T03:20:27;19.85;;;9.98;;
51738;SDS011;37815;52.692;6.226;2024-03-22T03:25:28;18.50;;;9.82;;
51738;SDS011;37815;52.692;6.226;2024-03-22T03:30:28;18.48;;;9.48;;
51738;SDS011;37815;52.692;6.226;2024-03-22T03:35:29;19.73;;;9.70;;
51738;SDS011;37815;52.692;6.226;2024-03-22T03:40:29;18.50;;;8.82;;
51738;SDS011;37815;52.692;6.226;2024-03-22T03:45:30;17.48;;;8.88;;
51738;SDS011;37815;52.692;6.226;2024-03-22T03:50:31;17.15;;;8.95;;
51738;SDS011;37815;52.692;6.226;2024-03-22T03:55:31;17.63;;;8.95;;
51738;SDS011;37815;52.692;6.226;2024-03-22T04:00:33;18.25;;;8.93;;
51738;SDS011;37815;52.692;6.226;2024-03-22T04:05:34;19.10;;;9.52;;
51738;SDS011;37815;52.692;6.226;2024-03-22T04:10:34;20.67;;;8.18;;
51738;SDS011;37815;52.692;6.226;2024-03-22T04:15:35;19.15;;;9.18;;
51738;SDS011;37815;52.692;6.226;2024-03-22T04:20:35;20.80;;;9.57;;
51738;SDS011;37815;52.692;6.226;2024-03-22T04:25:36;18.42;;;8.93;;
51738;SDS011;37815;52.692;6.226;2024-03-22T04:30:36;18.42;;;9.23;;
51738;SDS011;37815;52.692;6.226;2024-03-22T04:35:37;17.98;;;8.32;;
51738;SDS011;37815;52.692;6.226;2024-03-22T04:40:44;17.55;;;8.18;;
51738;SDS011;37815;52.692;6.226;2024-03-22T04:45:45;17.15;;;8.45;;
51738;SDS011;37815;52.692;6.226;2024-03-22T04:50:47;16.90;;;8.32;;
51738;SDS011;37815;52.692;6.226;2024-03-22T04:55:50;18.75;;;8.73;;
51738;SDS011;37815;52.692;6.226;2024-03-22T05:00:55;21.33;;;10.15;;
51738;SDS011;37815;52.692;6.226;2024-03-22T05:05:57;19.95;;;9.15;;
51738;SDS011;37815;52.692;6.226;2024-03-22T05:10:58;17.17;;;9.18;;
51738;SDS011;37815;52.692;6.226;2024-03-22T05:15:59;15.50;;;8.45;;
51738;SDS011;37815;52.692;6.226;2024-03-22T05:20:59;20.65;;;9.07;;
51738;SDS011;37815;52.692;6.226;2024-03-22T05:26:00;20.10;;;8.95;;
51738;SDS011;37815;52.692;6.226;2024-03-22T05:31:00;17.85;;;9.20;;
51738;SDS011;37815;52.692;6.226;2024-03-22T05:36:01;18.20;;;9.00;;
51738;SDS011;37815;52.692;6.226;2024-03-22T05:41:04;18.27;;;9.10;;
51738;SDS011;37815;52.692;6.226;2024-03-22T05:46:05;17.67;;;8.95;;
51738;SDS011;37815;52.692;6.226;2024-03-22T05:51:06;19.67;;;8.35;;
51738;SDS011;37815;52.692;6.226;2024-03-22T05:56:06;19.13;;;8.30;;
51738;SDS011;37815;52.692;6.226;2024-03-22T06:01:07;21.23;;;10.00;;
51738;SDS011;37815;52.692;6.226;2024-03-22T06:06:08;18.60;;;8.48;;
51738;SDS011;37815;52.692;6.226;2024-03-22T06:11:09;20.23;;;9.25;;
51738;SDS011;37815;52.692;6.226;2024-03-22T06:16:09;21.38;;;9.20;;
51738;SDS011;37815;52.692;6.226;2024-03-22T06:21:10;19.55;;;9.05;;
51738;SDS011;37815;52.692;6.226;2024-03-22T06:26:11;19.00;;;8.63;;
51738;SDS011;37815;52.692;6.226;2024-03-22T06:31:11;16.15;;;8.15;;
51738;SDS011;37815;52.692;6.226;2024-03-22T06:36:12;19.40;;;8.70;;
51738;SDS011;37815;52.692;6.226;2024-03-22T06:41:12;19.10;;;8.45;;
51738;SDS011;37815;52.692;6.226;2024-03-22T06:46:13;17.42;;;8.30;;
51738;SDS011;37815;52.692;6.226;2024-03-22T06:51:13;20.42;;;8.75;;
51738;SDS011;37815;52.692;6.226;2024-03-22T06:56:14;18.15;;;7.93;;
51738;SDS011;37815;52.692;6.226;2024-03-22T07:01:14;18.27;;;8.60;;
51738;SDS011;37815;52.692;6.226;2024-03-22T07:06:16;17.08;;;8.68;;
51738;SDS011;37815;52.692;6.226;2024-03-22T07:11:16;15.05;;;7.90;;
51738;SDS011;37815;52.692;6.226;2024-03-22T07:16:18;19.52;;;8.02;;
51738;SDS011;37815;52.692;6.226;2024-03-22T07:21:19;18.40;;;7.80;;
51738;SDS011;37815;52.692;6.226;2024-03-22T07:26:19;18.08;;;7.63;;
51738;SDS011;37815;52.692;6.226;2024-03-22T07:31:20;18.48;;;8.05;;
51738;SDS011;37815;52.692;6.226;2024-03-22T07:36:21;12.48;;;6.82;;
51738;SDS011;37815;52.692;6.226;2024-03-22T07:41:21;15.45;;;7.03;;
51738;SDS011;37815;52.692;6.226;2024-03-22T07:46:22;16.83;;;7.32;;
51738;SDS011;37815;52.692;6.226;2024-03-22T07:51:23;13.38;;;7.00;;
51738;SDS011;37815;52.692;6.226;2024-03-22T07:56:23;14.63;;;7.60;;
51738;SDS011;37815;52.692;6.226;2024-03-22T08:01:24;15.27;;;7.00;;
51738;SDS011;37815;52.692;6.226;2024-03-22T08:06:24;17.05;;;7.50;;
51738;SDS011;37815;52.692;6.226;2024-03-22T08:11:26;14.43;;;6.25;;
51738;SDS011;37815;52.692;6.226;2024-03-22T08:16:27;12.07;;;6.78;;
51738;SDS011;37815;52.692;6.226;2024-03-22T08:21:29;13.95;;;6.60;;
51738;SDS011;37815;52.692;6.226;2024-03-22T08:26:29;15.32;;;6.45;;
51738;SDS011;37815;52.692;6.226;2024-03-22T08:31:30;14.88;;;7.63;;
51738;SDS011;37815;52.692;6.226;2024-03-22T08:36:30;14.80;;;6.32;;
51738;SDS011;37815;52.692;6.226;2024-03-22T08:41:31;14.30;;;6.32;;
51738;SDS011;37815;52.692;6.226;2024-03-22T08:46:32;12.93;;;6.10;;
51738;SDS011;37815;52.692;6.226;2024-03-22T08:51:32;14.90;;;6.03;;
51738;SDS011;37815;52.692;6.226;2024-03-22T08:56:33;15.98;;;6.03;;
51738;SDS011;37815;52.692;6.226;2024-03-22T09:01:34;12.85;;;5.63;;
51738;SDS011;37815;52.692;6.226;2024-03-22T09:06:35;13.95;;;6.03;;
51738;SDS011;37815;52.692;6.226;2024-03-22T09:11:36;12.15;;;5.95;;
51738;SDS011;37815;52.692;6.226;2024-03-22T09:16:37;10.57;;;5.88;;
51738;SDS011;37815;52.692;6.226;2024-03-22T09:21:37;11.25;;;5.82;;
51738;SDS011;37815;52.692;6.226;2024-03-22T09:26:38;12.48;;;5.70;;
51738;SDS011;37815;52.692;6.226;2024-03-22T09:31:39;11.45;;;5.45;;
51738;SDS011;37815;52.692;6.226;2024-03-22T09:36:39;11.70;;;5.55;;
51738;SDS011;37815;52.692;6.226;2024-03-22T09:41:42;11.55;;;5.43;;
51738;SDS011;37815;52.692;6.226;2024-03-22T09:46:43;11.82;;;5.82;;
51738;SDS011;37815;52.692;6.226;2024-03-22T09:51:46;13.13;;;5.32;;
51738;SDS011;37815;52.692;6.226;2024-03-22T09:56:49;9.38;;;5.35;;
51738;SDS011;37815;52.692;6.226;2024-03-22T10:01:50;10.80;;;5.50;;
51738;SDS011;37815;52.692;6.226;2024-03-22T10:06:52;10.07;;;5.50;;
51738;SDS011;37815;52.692;6.226;2024-03-22T10:11:52;11.80;;;5.32;;
51738;SDS011;37815;52.692;6.226;2024-03-22T10:16:53;10.57;;;5.43;;
51738;SDS011;37815;52.692;6.226;2024-03-22T10:22:03;9.20;;;5.20;;
51738;SDS011;37815;52.692;6.226;2024-03-22T10:27:04;10.38;;;5.70;;
51738;SDS011;37815;52.692;6.226;2024-03-22T10:32:05;11.40;;;5.40;;
51738;SDS011;37815;52.692;6.226;2024-03-22T10:37:08;10.73;;;5.43;;
51738;SDS011;37815;52.692;6.226;2024-03-22T10:42:13;10.38;;;5.40;;
51738;SDS011;37815;52.692;6.226;2024-03-22T10:47:16;10.57;;;5.10;;
51738;SDS011;37815;52.692;6.226;2024-03-22T10:52:18;10.98;;;4.80;;
51738;SDS011;37815;52.692;6.226;2024-03-22T10:57:19;9.40;;;4.88;;
51738;SDS011;37815;52.692;6.226;2024-03-22T11:02:23;10.85;;;4.53;;
51738;SDS011;37815;52.692;6.226;2024-03-22T11:07:28;10.35;;;4.70;;
51738;SDS011;37815;52.692;6.226;2024-03-22T11:12:29;7.43;;;4.25;;
51738;SDS011;37815;52.692;6.226;2024-03-22T11:17:33;10.75;;;4.88;;
51738;SDS011;37815;52.692;6.226;2024-03-22T11:22:34;10.23;;;5.15;;
51738;SDS011;37815;52.692;6.226;2024-03-22T11:27:35;8.40;;;4.32;;
51738;SDS011;37815;52.692;6.226;2024-03-22T11:32:35;12.23;;;5.55;;
51738;SDS011;37815;52.692;6.226;2024-03-22T11:37:42;8.25;;;4.65;;
51738;SDS011;37815;52.692;6.226;2024-03-22T11:42:44;7.72;;;4.28;;
51738;SDS011;37815;52.692;6.226;2024-03-22T11:47:50;7.72;;;4.30;;
51738;SDS011;37815;52.692;6.226;2024-03-22T11:52:50;6.65;;;4.20;;
51738;SDS011;37815;52.692;6.226;2024-03-22T11:57:52;7.15;;;4.25;;
51738;SDS011;37815;52.692;6.226;2024-03-22T12:02:53;9.30;;;4.35;;
51738;SDS011;37815;52.692;6.226;2024-03-22T12:07:54;6.93;;;3.95;;
51738;SDS011;37815;52.692;6.226;2024-03-22T12:12:54;10.25;;;4.05;;
51738;SDS011;37815;52.692;6.226;2024-03-22T12:17:56;7.63;;;4.20;;
51738;SDS011;37815;52.692;6.226;2024-03-22T12:22:56;6.88;;;3.55;;
51738;SDS011;37815;52.692;6.226;2024-03-22T12:27:57;7.53;;;3.97;;
51738;SDS011;37815;52.692;6.226;2024-03-22T12:32:57;6.78;;;3.80;;
51738;SDS011;37815;52.692;6.226;2024-03-22T12:37:58;18.80;;;4.10;;
51738;SDS011;37815;52.692;6.226;2024-03-22T12:42:58;7.32;;;3.85;;
51738;SDS011;37815;52.692;6.226;2024-03-22T12:47:59;5.38;;;3.20;;
51738;SDS011;37815;52.692;6.226;2024-03-22T12:53:00;4.53;;;3.05;;
51738;SDS011;37815;52.692;6.226;2024-03-22T12:58:00;5.57;;;3.45;;
51738;SDS011;37815;52.692;6.226;2024-03-22T13:03:01;6.93;;;3.13;;
51738;SDS011;37815;52.692;6.226;2024-03-22T13:08:02;6.40;;;3.47;;
51738;SDS011;37815;52.692;6.226;2024-03-22T13:13:02;4.20;;;2.55;;
51738;SDS011;37815;52.692;6.226;2024-03-22T13:18:03;5.07;;;3.33;;
51738;SDS011;37815;52.692;6.226;2024-03-22T13:23:04;7.53;;;2.97;;
51738;SDS011;37815;52.692;6.226;2024-03-22T13:28:05;6.60;;;3.30;;
51738;SDS011;37815;52.692;6.226;2024-03-22T13:33:06;5.20;;;2.70;;
51738;SDS011;37815;52.692;6.226;2024-03-22T13:38:08;6.45;;;2.92;;
51738;SDS011;37815;52.692;6.226;2024-03-22T13:43:13;9.35;;;3.85;;
51738;SDS011;37815;52.692;6.226;2024-03-22T13:48:13;4.97;;;2.95;;
51738;SDS011;37815;52.692;6.226;2024-03-22T13:53:14;5.20;;;2.92;;
51738;SDS011;37815;52.692;6.226;2024-03-22T13:58:15;5.38;;;3.13;;
51738;SDS011;37815;52.692;6.226;2024-03-22T14:03:15;4.65;;;2.78;;
51738;SDS011;37815;52.692;6.226;2024-03-22T14:08:16;4.53;;;2.88;;
51738;SDS011;37815;52.692;6.226;2024-03-22T14:13:17;8.43;;;3.15;;
51738;SDS011;37815;52.692;6.226;2024-03-22T14:18:17;8.73;;;3.72;;
51738;SDS011;37815;52.692;6.226;2024-03-22T14:23:18;6.47;;;3.33;;
51738;SDS011;37815;52.692;6.226;2024-03-22T14:28:19;7.28;;;3.08;;
51738;SDS011;37815;52.692;6.226;2024-03-22T14:33:19;4.57;;;2.88;;
51738;SDS011;37815;52.692;6.226;2024-03-22T14:38:20;5.97;;;3.15;;
51738;SDS011;37815;52.692;6.226;2024-03-22T14:43:21;11.23;;;3.05;;
51738;SDS011;37815;52.692;6.226;2024-03-22T14:48:23;5.20;;;2.92;;
51738;SDS011;37815;52.692;6.226;2024-03-22T14:53:31;8.07;;;2.80;;
51738;SDS011;37815;52.692;6.226;2024-03-22T14:58:32;6.85;;;3.17;;
51738;SDS011;37815;52.692;6.226;2024-03-22T15:03:34;6.35;;;2.72;;
51738;SDS011;37815;52.692;6.226;2024-03-22T15:08:34;7.20;;;2.95;;
51738;SDS011;37815;52.692;6.226;2024-03-22T15:13:35;5.63;;;2.53;;
51738;SDS011;37815;52.692;6.226;2024-03-22T15:18:35;6.93;;;3.30;;
51738;SDS011;37815;52.692;6.226;2024-03-22T15:23:36;4.30;;;2.85;;
51738;SDS011;37815;52.692;6.226;2024-03-22T15:28:38;9.60;;;3.72;;
51738;SDS011;37815;52.692;6.226;2024-03-22T15:33:40;7.30;;;2.78;;
51738;SDS011;37815;52.692;6.226;2024-03-22T15:38:41;6.40;;;2.90;;
51738;SDS011;37815;52.692;6.226;2024-03-22T15:43:42;6.75;;;2.70;;
51738;SDS011;37815;52.692;6.226;2024-03-22T15:48:42;6.00;;;3.42;;
51738;SDS011;37815;52.692;6.226;2024-03-22T15:53:43;8.60;;;2.58;;
51738;SDS011;37815;52.692;6.226;2024-03-22T15:58:43;7.32;;;2.97;;
51738;SDS011;37815;52.692;6.226;2024-03-22T16:03:44;7.60;;;2.28;;
51738;SDS011;37815;52.692;6.226;2024-03-22T16:08:45;5.38;;;2.08;;
51738;SDS011;37815;52.692;6.226;2024-03-22T16:13:46;5.75;;;2.33;;
51738;SDS011;37815;52.692;6.226;2024-03-22T16:18:47;5.57;;;2.47;;
51738;SDS011;37815;52.692;6.226;2024-03-22T16:23:47;4.45;;;2.35;;
51738;SDS011;37815;52.692;6.226;2024-03-22T16:28:48;5.88;;;2.35;;
51738;SDS011;37815;52.692;6.226;2024-03-22T16:33:48;7.78;;;2.83;;
51738;SDS011;37815;52.692;6.226;2024-03-22T16:38:49;6.50;;;2.67;;
51738;SDS011;37815;52.692;6.226;2024-03-22T16:43:50;6.88;;;2.30;;
51738;SDS011;37815;52.692;6.226;2024-03-22T16:48:51;8.85;;;2.22;;
51738;SDS011;37815;52.692;6.226;2024-03-22T16:53:51;8.77;;;2.30;;
51738;SDS011;37815;52.692;6.226;2024-03-22T16:58:52;5.35;;;2.08;;
51738;SDS011;37815;52.692;6.226;2024-03-22T17:03:53;14.80;;;3.13;;
51738;SDS011;37815;52.692;6.226;2024-03-22T17:08:53;11.35;;;2.65;;
51738;SDS011;37815;52.692;6.226;2024-03-22T17:13:54;12.52;;;2.92;;
51738;SDS011;37815;52.692;6.226;2024-03-22T17:18:56;11.20;;;2.30;;
51738;SDS011;37815;52.692;6.226;2024-03-22T17:23:57;10.18;;;2.35;;
51738;SDS011;37815;52.692;6.226;2024-03-22T17:28:57;7.75;;;2.50;;
51738;SDS011;37815;52.692;6.226;2024-03-22T17:33:58;4.70;;;2.28;;
51738;SDS011;37815;52.692;6.226;2024-03-22T17:39:00;7.65;;;2.53;;
51738;SDS011;37815;52.692;6.226;2024-03-22T17:44:01;7.00;;;2.53;;
51738;SDS011;37815;52.692;6.226;2024-03-22T17:49:04;7.45;;;2.10;;
51738;SDS011;37815;52.692;6.226;2024-03-22T17:54:05;8.27;;;2.38;;
51738;SDS011;37815;52.692;6.226;2024-03-22T17:59:06;7.13;;;2.45;;
51738;SDS011;37815;52.692;6.226;2024-03-22T18:04:06;11.43;;;2.63;;
51738;SDS011;37815;52.692;6.226;2024-03-22T18:09:07;8.35;;;2.50;;
51738;SDS011;37815;52.692;6.226;2024-03-22T18:14:11;9.13;;;2.20;;
51738;SDS011;37815;52.692;6.226;2024-03-22T18:19:11;7.97;;;2.33;;
51738;SDS011;37815;52.692;6.226;2024-03-22T18:24:12;7.57;;;2.30;;
51738;SDS011;37815;52.692;6.226;2024-03-22T18:29:13;8.00;;;2.55;;
51738;SDS011;37815;52.692;6.226;2024-03-22T18:34:13;8.43;;;2.50;;
51738;SDS011;37815;52.692;6.226;2024-03-22T18:39:14;8.18;;;2.72;;
51738;SDS011;37815;52.692;6.226;2024-03-22T18:44:15;9.02;;;2.63;;
51738;SDS011;37815;52.692;6.226;2024-03-22T18:49:16;7.10;;;2.53;;
51738;SDS011;37815;52.692;6.226;2024-03-22T18:54:16;7.28;;;2.15;;
51738;SDS011;37815;52.692;6.226;2024-03-22T18:59:17;7.65;;;2.40;;
51738;SDS011;37815;52.692;6.226;2024-03-22T19:04:17;5.05;;;2.25;;
51738;SDS011;37815;52.692;6.226;2024-03-22T19:09:18;4.80;;;1.83;;
51738;SDS011;37815;52.692;6.226;2024-03-22T19:14:19;6.13;;;2.05;;
51738;SDS011;37815;52.692;6.226;2024-03-22T19:19:19;7.82;;;2.15;;
51738;SDS011;37815;52.692;6.226;2024-03-22T19:24:22;7.18;;;2.22;;
51738;SDS011;37815;52.692;6.226;2024-03-22T19:29:22;5.05;;;2.40;;
51738;SDS011;37815;52.692;6.226;2024-03-22T19:34:23;5.55;;;2.40;;
51738;SDS011;37815;52.692;6.226;2024-03-22T19:39:24;11.18;;;2.70;;
51738;SDS011;37815;52.692;6.226;2024-03-22T19:44:25;8.82;;;3.22;;
51738;SDS011;37815;52.692;6.226;2024-03-22T19:49:26;9.40;;;2.20;;
51738;SDS011;37815;52.692;6.226;2024-03-22T19:54:28;4.10;;;1.80;;
51738;SDS011;37815;52.692;6.226;2024-03-22T19:59:29;4.90;;;1.80;;
51738;SDS011;37815;52.692;6.226;2024-03-22T20:04:29;6.40;;;1.90;;
51738;SDS011;37815;52.692;6.226;2024-03-22T20:09:32;7.63;;;2.25;;
51738;SDS011;37815;52.692;6.226;2024-03-22T20:14:33;6.88;;;1.88;;
51738;SDS011;37815;52.692;6.226;2024-03-22T20:19:33;6.78;;;2.15;;
51738;SDS011;37815;52.692;6.226;2024-03-22T20:24:34;4.65;;;2.00;;
51738;SDS011;37815;52.692;6.226;2024-03-22T20:29:37;5.25;;;2.08;;
51738;SDS011;37815;52.692;6.226;2024-03-22T20:34:39;5.60;;;2.00;;
